Time;durP1;ratioP1;P1;durP2;ratioP2;P2;SDS_P1;SDS_P2;PMS_P1;PMS_P2;Temp;Humidity;BMP_temperature;BMP_pressure;BME280_temperature;BME280_humidity;BME280_pressure;Samples;Min_cycle;Max_cycle;Signal;HPM_P1;HPM_P2
2022/07/18 00:01:52;;;;;;;1.83;1.02;;;;;;;16.66;82.69;102329.97;6248597;28;20045;-76
2022/07/18 00:04:54;;;;;;;6.50;1.50;;;;;;;16.66;82.89;102320.19;6248110;28;20052;-76
2022/07/18 00:07:56;;;;;;;1.95;1.10;;;;;;;16.58;83.85;102319.78;6248602;28;20061;-76
2022/07/18 00:10:58;;;;;;;3.90;1.00;;;;;;;16.50;84.02;102319.31;6245740;28;20490;-77
2022/07/18 00:13:59;;;;;;;1.33;1.00;;;;;;;16.46;84.13;102309.81;6245641;28;20046;-77
2022/07/18 00:17:01;;;;;;;4.35;1.10;;;;;;;16.41;85.29;102302.09;6247649;28;20068;-76
2022/07/18 00:20:04;;;;;;;2.42;0.98;;;;;;;16.35;85.79;102285.63;6247994;28;20042;-76
2022/07/18 00:23:07;;;;;;;2.92;1.33;;;;;;;16.35;86.29;102285.63;6247996;28;20049;-76
2022/07/18 00:26:08;;;;;;;3.72;2.13;;;;;;;16.33;85.99;102284.84;6248124;28;20049;-78
2022/07/18 00:29:10;;;;;;;3.10;1.00;;;;;;;16.24;86.92;102281.75;6248343;28;20042;-78
2022/07/18 00:32:11;;;;;;;2.03;1.02;;;;;;;16.23;87.26;102287.13;6241153;28;20052;-78
2022/07/18 00:35:13;;;;;;;1.63;0.93;;;;;;;16.24;86.33;102299.47;6223510;28;20056;-78
2022/07/18 00:38:16;;;;;;;2.08;1.17;;;;;;;16.17;86.34;102288.31;6223387;28;20058;-78
2022/07/18 00:41:17;;;;;;;3.58;1.50;;;;;;;16.14;85.81;102293.78;6243369;28;20037;-78
2022/07/18 00:44:21;;;;;;;2.47;1.20;;;;;;;16.08;86.15;102293.22;6247264;28;20092;-78
2022/07/18 00:47:23;;;;;;;1.50;0.80;;;;;;;16.04;86.95;102287.25;6248028;28;20059;-78
2022/07/18 00:50:25;;;;;;;1.27;1.10;;;;;;;16.02;85.95;102285.59;6247322;28;20041;-78
2022/07/18 00:53:27;;;;;;;2.28;1.13;;;;;;;16.01;86.32;102275.94;6247645;28;20509;-78
2022/07/18 00:56:29;;;;;;;1.38;0.98;;;;;;;15.96;86.30;102281.47;6247458;28;20053;-78
2022/07/18 01:02:50;;;;;;;5.05;1.08;;;;;;;15.94;86.63;102273.59;6238991;28;20085;-78
2022/07/18 01:05:52;;;;;;;2.40;1.02;;;;;;;15.86;86.43;102277.59;6222649;28;20061;-77
2022/07/18 01:08:55;;;;;;;4.68;1.25;;;;;;;15.79;87.17;102278.81;6233890;28;20045;-78
2022/07/18 01:11:56;;;;;;;4.47;1.45;;;;;;;15.84;86.59;102277.63;6231975;28;20056;-78
2022/07/18 01:14:58;;;;;;;4.70;1.65;;;;;;;15.77;86.69;102273.59;6229348;28;20053;-78
2022/07/18 01:18:00;;;;;;;2.50;1.08;;;;;;;15.79;86.50;102278.81;6227055;28;20057;-78
2022/07/18 01:21:02;;;;;;;1.70;0.93;;;;;;;15.81;86.59;102277.81;6231366;28;20050;-78
2022/07/18 01:24:06;;;;;;;1.60;1.17;;;;;;;15.75;86.02;102274.59;6228048;28;20049;-78
2022/07/18 01:27:07;;;;;;;4.50;1.20;;;;;;;15.70;86.56;102266.88;6234303;28;20057;-78
2022/07/18 01:30:10;;;;;;;1.58;1.00;;;;;;;15.69;86.47;102267.81;6232544;28;20037;-78
2022/07/18 01:33:11;;;;;;;3.42;1.20;;;;;;;15.60;86.84;102266.47;6231876;28;20061;-78
2022/07/18 01:36:14;;;;;;;3.38;1.27;;;;;;;15.62;87.32;102269.03;6240835;28;20041;-78
2022/07/18 01:39:15;;;;;;;1.23;0.98;;;;;;;15.55;87.81;102268.50;6247294;28;20060;-78
2022/07/18 01:42:17;;;;;;;2.20;1.02;;;;;;;15.53;87.98;102274.78;6246810;28;20421;-78
2022/07/18 01:45:20;;;;;;;3.35;1.13;;;;;;;15.52;88.71;102262.47;6246818;28;20049;-78
2022/07/18 01:48:23;;;;;;;3.33;1.40;;;;;;;15.46;88.46;102263.66;6247233;28;20049;-78
2022/07/18 01:51:25;;;;;;;1.17;0.80;;;;;;;15.36;88.91;102265.91;6246719;28;20539;-78
2022/07/18 01:54:29;;;;;;;1.75;1.10;;;;;;;15.34;88.96;102257.16;6246757;28;20049;-78
2022/07/18 01:57:30;;;;;;;2.55;1.05;;;;;;;15.34;89.05;102257.16;6246758;28;20508;-78
2022/07/18 02:00:32;;;;;;;1.10;0.95;;;;;;;15.33;89.22;102244.00;6246469;28;20068;-78
2022/07/18 02:03:33;;;;;;;1.38;1.02;;;;;;;15.32;89.26;102247.59;6245783;28;20056;-78
2022/07/18 02:06:36;;;;;;;5.50;1.10;;;;;;;15.29;89.32;102245.06;6226898;28;20050;-78
2022/07/18 02:09:38;;;;;;;2.00;1.15;;;;;;;15.24;89.19;102250.59;6226417;28;20076;-78
2022/07/18 02:12:40;;;;;;;2.03;0.95;;;;;;;15.18;89.77;102254.41;6251214;28;20061;-78
2022/07/18 02:15:41;;;;;;;2.05;1.00;;;;;;;15.16;89.90;102243.00;6251237;28;20053;-78
2022/07/18 02:18:43;;;;;;;4.82;0.80;;;;;;;15.19;89.31;102249.97;6251403;28;20056;-78
2022/07/18 02:21:45;;;;;;;3.30;0.93;;;;;;;15.13;89.45;102248.47;6250416;28;20049;-78
2022/07/18 02:24:46;;;;;;;2.97;1.17;;;;;;;15.07;90.07;102248.75;6251041;28;20045;-78
2022/07/18 02:27:48;;;;;;;2.13;1.25;;;;;;;15.06;90.71;102243.53;6251371;28;20045;-78
2022/07/18 02:30:49;;;;;;;2.17;1.00;;;;;;;15.06;90.33;102236.47;6250740;28;20045;-78
2022/07/18 02:33:51;;;;;;;1.50;1.10;;;;;;;15.06;89.93;102239.09;6250427;28;20525;-78
2022/07/18 02:36:53;;;;;;;3.13;1.05;;;;;;;15.00;90.16;102233.25;6250774;28;20057;-78
2022/07/18 02:39:55;;;;;;;2.90;1.08;;;;;;;15.02;89.93;102232.22;6250734;28;20049;-78
2022/07/18 02:42:56;;;;;;;3.20;1.00;;;;;;;14.97;90.05;102232.47;6228989;28;20061;-78
2022/07/18 02:45:57;;;;;;;3.25;1.05;;;;;;;14.90;90.33;102220.47;6225903;28;20425;-78
2022/07/18 02:48:59;;;;;;;1.92;1.20;;;;;;;14.80;90.56;102229.75;6226070;28;20050;-78
2022/07/18 02:52:04;;;;;;;1.35;0.80;;;;;;;14.78;91.55;102236.91;6225687;28;20057;-78
2022/07/18 02:55:06;;;;;;;2.47;1.27;;;;;;;14.80;91.04;102242.13;6225714;28;20058;-78
2022/07/18 02:58:08;;;;;;;1.88;1.08;;;;;;;14.79;90.90;102237.78;6226128;28;20057;-78
2022/07/18 03:01:09;;;;;;;1.30;0.90;;;;;;;14.75;91.24;102239.69;6226041;28;20524;-78
2022/07/18 03:04:10;;;;;;;5.60;1.15;;;;;;;14.71;91.36;102246.91;6249629;28;20050;-78
2022/07/18 03:07:13;;;;;;;1.92;1.20;;;;;;;14.69;91.68;102245.28;6250474;28;20045;-78
2022/07/18 03:10:14;;;;;;;4.30;1.17;;;;;;;14.67;91.21;102240.06;6250110;28;20061;-78
2022/07/18 03:13:16;;;;;;;3.60;1.30;;;;;;;14.69;91.49;102240.00;6249934;28;20056;-78
2022/07/18 03:16:17;;;;;;;2.58;1.10;;;;;;;14.71;91.07;102232.84;6249651;28;20053;-78
2022/07/18 03:19:19;;;;;;;2.35;1.50;;;;;;;14.67;91.28;102228.59;6249962;28;20511;-78
2022/07/18 03:22:21;;;;;;;4.28;1.25;;;;;;;14.67;91.06;102231.25;6249653;28;20045;-78
2022/07/18 03:25:23;;;;;;;2.92;1.40;;;;;;;14.61;91.12;102229.75;6249609;28;20568;-78
2022/07/18 03:28:24;;;;;;;2.03;1.10;;;;;;;14.60;91.61;102230.69;6249810;28;20062;-78
2022/07/18 03:31:25;;;;;;;1.88;1.00;;;;;;;14.61;91.60;102221.81;6247917;28;20052;-78
2022/07/18 03:34:27;;;;;;;1.83;1.00;;;;;;;14.63;91.36;102222.63;6249240;28;20053;-78
2022/07/18 03:37:29;;;;;;;2.40;1.10;;;;;;;14.57;91.31;102220.25;6249422;28;20049;-79
2022/07/18 03:40:31;;;;;;;1.83;1.20;;;;;;;14.54;91.58;102216.91;6249483;28;20045;-78
2022/07/18 03:43:32;;;;;;;2.25;1.38;;;;;;;14.50;92.05;102217.97;6249120;28;20390;-78
2022/07/18 03:46:34;;;;;;;4.95;1.40;;;;;;;14.52;91.53;102227.53;6249255;28;20058;-78
2022/07/18 03:49:35;;;;;;;2.47;0.95;;;;;;;14.49;91.91;102221.53;6248961;28;20057;-78
2022/07/18 03:52:38;;;;;;;1.73;1.10;;;;;;;14.52;91.65;102224.03;6249175;28;20056;-78
2022/07/18 03:55:39;;;;;;;1.38;1.00;;;;;;;14.52;91.67;102203.72;6248207;28;20049;-78
2022/07/18 03:58:40;;;;;;;2.17;1.10;;;;;;;14.51;91.13;102203.81;6248869;28;20053;-78
2022/07/18 04:01:42;;;;;;;2.47;1.45;;;;;;;14.51;91.63;102209.09;6246968;28;20041;-78
2022/07/18 04:04:43;;;;;;;1.20;1.00;;;;;;;14.55;91.53;102208.03;6248357;28;20049;-78
2022/07/18 04:07:46;;;;;;;2.28;1.50;;;;;;;14.59;91.48;102205.19;6248960;28;20057;-78
2022/07/18 04:10:47;;;;;;;3.50;1.63;;;;;;;14.62;91.87;102204.16;6248482;28;20048;-78
2022/07/18 04:13:49;;;;;;;2.75;1.30;;;;;;;14.66;91.78;102216.31;6248510;28;20435;-78
2022/07/18 04:16:50;;;;;;;3.30;1.42;;;;;;;14.67;91.96;102215.38;6248480;28;20056;-78
2022/07/18 04:19:52;;;;;;;3.40;1.38;;;;;;;14.71;92.11;102207.22;6248752;28;20053;-78
2022/07/18 04:22:57;;;;;;;3.70;1.48;;;;;;;14.80;91.89;102210.38;6248258;28;20049;-78
2022/07/18 04:25:59;;;;;;;5.22;1.40;;;;;;;14.85;91.56;102211.00;6247896;28;20053;-78
2022/07/18 04:29:00;;;;;;;2.45;1.63;;;;;;;14.87;91.25;102207.38;6247784;28;20046;-78
2022/07/18 04:32:01;;;;;;;1.70;1.40;;;;;;;14.97;91.05;102207.78;6247968;28;20053;-78
2022/07/18 04:35:03;;;;;;;1.73;1.13;;;;;;;15.06;90.42;102209.97;6248071;28;20056;-78
2022/07/18 04:38:08;;;;;;;2.60;1.40;;;;;;;15.15;90.13;102200.72;6248028;28;20425;-78
2022/07/18 04:41:09;;;;;;;2.10;1.13;;;;;;;15.17;90.29;102202.38;6248001;28;20045;-78
2022/07/18 04:44:11;;;;;;;1.13;1.02;;;;;;;15.19;89.84;102202.28;6247479;28;20059;-78
2022/07/18 04:47:12;;;;;;;2.60;1.10;;;;;;;15.22;89.47;102196.84;6247947;28;20543;-78
2022/07/18 04:50:14;;;;;;;3.00;1.02;;;;;;;15.24;89.59;102192.31;6247990;28;20056;-78
2022/07/18 04:53:17;;;;;;;2.17;1.05;;;;;;;15.31;89.17;102191.09;6248032;28;20049;-78
2022/07/18 04:56:18;;;;;;;2.13;0.85;;;;;;;15.36;89.10;102190.88;6247230;28;20057;-78
2022/07/18 04:59:19;;;;;;;1.65;1.27;;;;;;;15.39;89.08;102190.69;6235448;28;20060;-78
2022/07/18 05:02:21;;;;;;;1.60;1.10;;;;;;;15.43;88.83;102185.16;6244199;28;20045;-78
2022/07/18 05:05:23;;;;;;;3.30;1.65;;;;;;;15.48;88.73;102188.44;6385206;22;20539;-70
2022/07/18 05:08:26;;;;;;;2.50;0.80;;;;;;;15.51;88.71;102197.19;6296758;28;20055;-71
2022/07/18 05:11:27;;;;;;;1.00;0.90;;;;;;;15.52;88.45;102188.28;6318328;28;20074;-71
2022/07/18 05:14:28;;;;;;;2.42;1.65;;;;;;;15.54;88.29;102194.38;6310080;28;20049;-70
2022/07/18 05:17:29;;;;;;;1.80;1.05;;;;;;;15.58;88.47;102209.16;6296240;28;20050;-71
2022/07/18 05:20:31;;;;;;;3.30;1.30;;;;;;;15.60;89.32;102197.56;6296363;28;20052;-70
2022/07/18 05:23:33;;;;;;;2.42;1.10;;;;;;;15.64;89.77;102198.31;6296269;28;20044;-70
2022/07/18 05:26:35;;;;;;;3.38;1.45;;;;;;;15.70;90.00;102188.22;6296711;28;20053;-69
2022/07/18 05:29:36;;;;;;;2.88;1.00;;;;;;;15.74;90.04;102186.28;6298059;28;20056;-70
2022/07/18 05:32:38;;;;;;;1.35;1.00;;;;;;;15.78;90.30;102194.94;6297182;28;20052;-69
2022/07/18 05:35:39;;;;;;;4.20;1.30;;;;;;;15.82;89.34;102192.03;6298722;28;20056;-70
2022/07/18 05:38:42;;;;;;;3.67;1.30;;;;;;;15.88;88.97;102191.72;6303286;28;20044;-70
2022/07/18 05:41:43;;;;;;;3.13;1.20;;;;;;;15.97;87.50;102188.56;6303097;28;20048;-69
2022/07/18 05:44:45;;;;;;;1.85;1.10;;;;;;;16.13;85.82;102178.03;6302677;28;20052;-70
2022/07/18 05:47:46;;;;;;;1.42;0.73;;;;;;;16.25;84.33;102176.50;6307098;28;20412;-69
2022/07/18 05:50:47;;;;;;;4.18;1.08;;;;;;;16.34;84.08;102169.81;6320140;28;20044;-69
2022/07/18 05:53:50;;;;;;;3.30;0.93;;;;;;;16.44;82.99;102165.72;6328537;28;20044;-70
2022/07/18 05:56:53;;;;;;;1.05;0.70;;;;;;;16.48;83.09;102161.94;6319588;28;20048;-70
2022/07/18 05:59:54;;;;;;;1.20;0.80;;;;;;;16.60;82.18;102168.38;6327995;28;20105;-70
2022/07/18 06:02:55;;;;;;;2.05;0.82;;;;;;;16.70;81.81;102154.50;6327540;28;20044;-70
2022/07/18 06:05:57;;;;;;;0.77;0.70;;;;;;;16.80;82.37;102161.97;6327633;28;20085;-70
2022/07/18 06:08:59;;;;;;;9.50;4.28;;;;;;;16.86;81.93;102162.50;6327403;28;20443;-70
2022/07/18 06:12:02;;;;;;;7.35;2.92;;;;;;;16.96;81.49;102171.66;6327112;28;20047;-70
2022/07/18 06:15:04;;;;;;;4.32;1.35;;;;;;;17.03;80.80;102169.47;6327262;28;20044;-70
2022/07/18 06:18:05;;;;;;;2.40;1.10;;;;;;;17.11;79.91;102167.25;6327160;28;20051;-69
2022/07/18 06:21:07;;;;;;;2.22;1.00;;;;;;;17.16;80.11;102166.97;6326233;28;20056;-69
2022/07/18 06:24:10;;;;;;;1.83;1.35;;;;;;;17.20;79.72;102165.84;6321357;28;20055;-69
2022/07/18 06:27:11;;;;;;;3.28;1.00;;;;;;;17.25;79.80;102158.47;6312940;28;20053;-70
2022/07/18 06:30:13;;;;;;;0.77;0.73;;;;;;;17.32;79.13;102158.97;6300833;28;20633;-70
2022/07/18 06:33:14;;;;;;;1.35;1.08;;;;;;;17.42;78.29;102146.84;6301027;28;20052;-70
2022/07/18 06:36:17;;;;;;;1.48;1.02;;;;;;;17.58;77.06;102144.13;6300542;28;20055;-69
2022/07/18 06:39:20;;;;;;;1.08;0.98;;;;;;;17.69;76.60;102154.97;6300372;28;20102;-70
2022/07/18 06:42:21;;;;;;;1.17;0.80;;;;;;;17.74;76.67;102140.47;6303963;28;20036;-70
2022/07/18 06:45:22;;;;;;;2.00;0.70;;;;;;;17.75;76.69;102136.00;6313966;28;20055;-70
2022/07/18 06:48:24;;;;;;;2.25;0.75;;;;;;;17.82;75.84;102136.50;6317294;28;20510;-70
2022/07/18 06:51:25;;;;;;;2.08;0.77;;;;;;;17.90;74.86;102134.22;6313256;28;20044;-70
2022/07/18 06:54:28;;;;;;;1.48;0.70;;;;;;;18.00;73.85;102130.88;6320235;28;20051;-69
2022/07/18 06:57:30;;;;;;;0.65;0.60;;;;;;;18.17;71.86;102128.97;6324617;28;20147;-70
2022/07/18 07:00:31;;;;;;;1.10;0.95;;;;;;;18.32;71.07;102135.97;6325793;28;20518;-69
2022/07/18 07:03:32;;;;;;;0.43;0.43;;;;;;;18.44;71.54;102140.53;6318468;28;20040;-70
2022/07/18 07:06:34;;;;;;;1.58;0.50;;;;;;;18.54;70.13;102142.59;6310155;28;20040;-69
2022/07/18 07:09:36;;;;;;;2.38;1.25;;;;;;;18.63;70.34;102145.50;6318801;28;20048;-72
2022/07/18 07:12:41;;;;;;;2.13;1.10;;;;;;;18.74;70.07;102145.69;6316717;28;20040;-72
2022/07/18 07:15:43;;;;;;;2.08;0.85;;;;;;;18.85;66.94;102137.00;6298997;28;20053;-70
2022/07/18 07:18:44;;;;;;;3.35;0.80;;;;;;;18.96;65.51;102138.94;6318597;28;20528;-72
2022/07/18 07:21:45;;;;;;;1.30;0.70;;;;;;;19.06;64.72;102136.50;6316592;28;20048;-70
2022/07/18 07:24:48;;;;;;;6.15;0.95;;;;;;;19.12;64.38;102138.75;6317275;28;20419;-73
2022/07/18 07:27:49;;;;;;;0.50;0.50;;;;;;;19.17;62.18;102136.66;6314443;28;20047;-70
2022/07/18 07:30:51;;;;;;;2.60;1.58;;;;;;;19.22;62.29;102135.38;6323310;28;20044;-71
2022/07/18 07:33:52;;;;;;;1.83;0.93;;;;;;;19.29;61.87;102130.47;6311958;28;20083;-70
2022/07/18 07:36:53;;;;;;;1.42;0.90;;;;;;;19.42;62.16;102119.84;6313803;28;20059;-74
2022/07/18 07:39:56;;;;;;;4.28;0.70;;;;;;;19.52;60.47;102129.75;6313975;28;20495;-73
2022/07/18 07:43:08;;;;;;;1.10;0.70;;;;;;;19.63;59.54;102125.53;6322887;28;20056;-74
2022/07/18 07:46:11;;;;;;;1.25;0.75;;;;;;;19.76;59.45;102129.06;6323375;28;20051;-74
2022/07/18 07:49:12;;;;;;;2.05;0.70;;;;;;;19.82;58.99;102125.97;6322837;28;20044;-74
2022/07/18 07:52:14;;;;;;;0.80;0.60;;;;;;;19.83;57.76;102122.31;6323197;28;20408;-73
2022/07/18 07:55:17;;;;;;;2.17;0.80;;;;;;;19.94;54.55;102116.22;6320829;28;20566;-73
2022/07/18 07:58:18;;;;;;;0.70;0.60;;;;;;;20.06;55.06;102110.00;6322267;28;20040;-73
2022/07/18 08:01:19;;;;;;;3.15;0.60;;;;;;;20.13;54.25;102107.78;6322449;28;20411;-73
2022/07/18 08:04:20;;;;;;;2.97;0.95;;;;;;;20.20;54.13;102095.66;6319945;28;20048;-73
2022/07/18 08:07:23;;;;;;;2.15;0.63;;;;;;;20.20;54.25;102096.53;6319862;28;20040;-73
2022/07/18 08:10:26;;;;;;;1.25;0.65;;;;;;;20.28;54.51;102098.63;6322058;28;20048;-73
2022/07/18 08:13:28;;;;;;;1.27;0.60;;;;;;;20.30;54.11;102096.69;6322515;28;20044;-73
2022/07/18 08:16:29;;;;;;;0.32;0.30;;;;;;;20.35;53.51;102093.69;6322010;28;20466;-72
2022/07/18 08:19:30;;;;;;;0.50;0.50;;;;;;;20.44;53.93;102093.91;6322707;28;20059;-73
2022/07/18 08:22:32;;;;;;;1.15;0.57;;;;;;;20.54;52.01;102088.75;6320549;28;20052;-73
2022/07/18 08:25:36;;;;;;;1.75;1.33;;;;;;;20.68;51.62;102098.41;6298330;28;20044;-73
2022/07/18 08:28:38;;;;;;;0.85;0.57;;;;;;;20.73;50.14;102097.09;6321568;28;20044;-73
2022/07/18 08:31:39;;;;;;;1.55;0.70;;;;;;;20.76;50.28;102094.19;6321926;28;20044;-73
2022/07/18 08:34:40;;;;;;;0.80;0.70;;;;;;;20.85;49.04;102095.34;6313514;28;20044;-72
2022/07/18 08:37:42;;;;;;;2.35;0.70;;;;;;;20.99;48.63;102091.63;6321945;28;20427;-74
2022/07/18 08:40:47;;;;;;;1.23;0.82;;;;;;;21.16;47.50;102084.97;6313634;28;20060;-72
2022/07/18 08:43:49;;;;;;;2.35;0.60;;;;;;;21.22;48.13;102084.50;6296441;28;20040;-73
2022/07/18 08:46:53;;;;;;;1.40;0.57;;;;;;;21.27;48.51;102079.66;6296819;28;20048;-73
2022/07/18 08:49:55;;;;;;;1.38;0.60;;;;;;;21.37;48.09;102071.81;6296631;28;20047;-73
2022/07/18 08:52:57;;;;;;;2.17;0.77;;;;;;;21.44;47.39;102067.69;6297843;28;20056;-72
2022/07/18 08:55:59;;;;;;;1.58;0.85;;;;;;;21.62;44.23;102060.88;6295943;28;20515;-73
2022/07/18 08:59:02;;;;;;;1.65;0.82;;;;;;;21.75;43.05;102071.44;6296555;28;20061;-73
2022/07/18 09:02:03;;;;;;;2.38;0.70;;;;;;;21.92;43.39;102064.75;6296014;28;20059;-72
2022/07/18 09:05:06;;;;;;;0.93;0.50;;;;;;;22.03;42.92;102062.94;6296234;28;20423;-73
2022/07/18 09:08:09;;;;;;;1.20;0.70;;;;;;;22.13;41.87;102063.06;6301450;28;20477;-71
2022/07/18 09:11:12;;;;;;;1.42;0.90;;;;;;;22.26;41.82;102069.13;6315349;28;20049;-72
2022/07/18 09:14:28;;;;;;;1.38;0.70;;;;;;;22.40;41.92;102069.81;6316097;28;20659;-71
2022/07/18 09:17:30;;;;;;;1.45;1.00;;;;;;;22.53;41.11;102059.78;6320296;28;20052;-70
2022/07/18 09:20:31;;;;;;;2.53;1.23;;;;;;;22.67;39.51;102061.31;6306255;28;20423;-70
2022/07/18 09:23:36;;;;;;;4.85;1.48;;;;;;;22.68;39.30;102065.69;6298257;28;20055;-70
2022/07/18 09:26:41;;;;;;;2.42;1.17;;;;;;;22.74;40.31;102066.00;6310884;28;20044;-70
2022/07/18 09:29:42;;;;;;;1.95;1.10;;;;;;;22.87;41.72;102059.63;6313170;28;20044;-70
2022/07/18 09:32:47;;;;;;;5.05;1.15;;;;;;;22.95;41.67;102052.66;6321240;28;20048;-70
2022/07/18 09:35:50;;;;;;;1.67;1.15;;;;;;;23.10;39.51;102049.66;6316907;28;20492;-70
2022/07/18 09:38:52;;;;;;;4.38;1.77;;;;;;;23.10;39.94;102049.66;6320696;28;20427;-71
2022/07/18 09:42:13;;;;;;;1.77;1.33;;;;;;;23.14;39.00;102051.09;6314160;28;20515;-71
2022/07/18 09:45:14;;;;;;;2.58;1.40;;;;;;;23.18;38.25;102044.47;6305287;28;20052;-71
2022/07/18 09:48:17;;;;;;;4.60;1.75;;;;;;;23.24;37.85;102036.75;6306229;28;20048;-71
2022/07/18 09:51:19;;;;;;;2.15;1.25;;;;;;;23.35;38.39;102045.72;6297081;28;20076;-70
2022/07/18 09:54:20;;;;;;;1.60;1.30;;;;;;;23.45;39.36;102054.66;6303563;28;20044;-70
2022/07/18 09:57:26;;;;;;;3.35;1.70;;;;;;;23.70;36.73;102048.00;6312057;28;20068;-70
2022/07/18 10:00:32;;;;;;;2.45;1.60;;;;;;;23.82;36.26;102043.38;6312206;28;20044;-70
2022/07/18 10:03:33;;;;;;;2.97;1.52;;;;;;;23.84;36.41;102036.03;6320774;28;20411;-71
2022/07/18 10:06:35;;;;;;;3.25;1.30;;;;;;;23.85;37.31;102033.22;6312639;28;20048;-70
2022/07/18 10:09:39;;;;;;;2.75;1.45;;;;;;;23.97;37.35;102029.44;6320938;28;20072;-69
2022/07/18 10:12:42;;;;;;;2.05;1.23;;;;;;;24.07;37.96;102018.69;6312926;28;20412;-69
2022/07/18 10:15:45;;;;;;;2.40;1.52;;;;;;;24.22;37.16;102019.16;6320643;28;20040;-69
2022/07/18 10:18:46;;;;;;;1.40;1.10;;;;;;;24.32;37.19;102017.31;6321039;28;20048;-68
2022/07/18 10:21:49;;;;;;;2.22;0.98;;;;;;;24.42;38.75;102006.63;6300600;28;20045;-69
2022/07/18 10:24:51;;;;;;;2.78;0.95;;;;;;;24.71;36.84;101999.41;6299910;28;20052;-69
2022/07/18 10:27:55;;;;;;;1.70;1.20;;;;;;;24.85;38.14;101998.09;6300050;28;20056;-69
2022/07/18 10:31:13;;;;;;;1.70;1.20;;;;;;;24.92;35.49;101988.44;6299724;28;20423;-69
2022/07/18 10:34:14;;;;;;;2.22;1.23;;;;;;;24.94;35.92;101996.38;6299888;28;20051;-69
2022/07/18 10:37:25;;;;;;;3.40;1.60;;;;;;;25.05;34.83;101983.59;6299996;28;20044;-69
2022/07/18 10:40:28;;;;;;;2.53;0.98;;;;;;;25.16;35.50;101987.97;6299615;28;20125;-69
2022/07/18 10:43:46;;;;;;;2.50;1.23;;;;;;;25.32;33.26;101992.75;6299776;28;20045;-69
2022/07/18 10:47:06;;;;;;;2.67;1.30;;;;;;;25.74;33.74;101993.09;6299466;28;20056;-69
2022/07/18 10:50:09;;;;;;;2.10;1.15;;;;;;;25.84;32.90;101989.53;6300544;28;20486;-69
2022/07/18 10:53:10;;;;;;;1.85;1.00;;;;;;;25.83;33.67;101986.00;6299248;28;20534;-70
2022/07/18 10:56:11;;;;;;;1.80;0.88;;;;;;;25.86;34.95;101983.00;6299407;28;20045;-71
2022/07/18 10:59:18;;;;;;;1.58;0.95;;;;;;;26.10;34.35;101981.56;6299204;28;20056;-71
2022/07/18 11:02:31;;;;;;;1.48;0.98;;;;;;;26.27;32.01;101976.16;6299306;28;20059;-71
2022/07/18 11:05:34;;;;;;;1.17;0.82;;;;;;;26.38;32.34;101975.06;6318133;22;20053;-77
2022/07/18 11:08:36;;;;;;;1.40;0.80;;;;;;;26.40;31.77;101970.38;6270278;28;20048;-78
2022/07/18 11:11:37;;;;;;;1.42;0.88;;;;;;;26.62;32.82;101962.84;6278669;28;20056;-78
2022/07/18 11:15:21;;;;;;;1.67;1.00;;;;;;;26.78;31.03;101966.50;6278669;28;20041;-78
2022/07/18 11:18:24;;;;;;;2.28;1.27;;;;;;;26.88;30.17;101968.22;6231688;28;20049;-73
2022/07/18 11:21:27;;;;;;;2.60;1.10;;;;;;;26.84;30.14;101961.47;6249320;28;20057;-77
2022/07/18 11:24:29;;;;;;;2.25;1.08;;;;;;;26.78;30.17;101971.88;6248944;28;20065;-78
2022/07/18 11:27:31;;;;;;;1.00;0.80;;;;;;;26.80;29.53;101985.22;6257630;28;20060;-78
2022/07/18 11:30:32;;;;;;;1.70;1.02;;;;;;;26.88;29.19;101973.63;6255659;28;20056;-78
2022/07/18 11:33:38;;;;;;;1.63;0.90;;;;;;;26.89;29.73;101973.50;6255667;28;20053;-78
2022/07/18 11:36:41;;;;;;;1.50;0.90;;;;;;;27.05;29.94;101967.31;6254229;28;20057;-78
2022/07/18 11:39:43;;;;;;;2.75;1.00;;;;;;;27.26;28.87;101961.59;6256711;28;20046;-77
2022/07/18 11:42:44;;;;;;;0.95;0.70;;;;;;;27.38;28.72;101956.72;6255577;28;20042;-76
2022/07/18 11:45:46;;;;;;;3.60;0.90;;;;;;;27.43;29.67;101960.63;6255146;28;20053;-77
2022/07/18 11:48:57;;;;;;;1.38;0.90;;;;;;;27.59;28.59;101957.16;6243483;28;20461;-77
2022/07/18 11:51:59;;;;;;;1.08;0.80;;;;;;;27.76;27.81;101948.13;6230423;28;20054;-76
2022/07/18 11:55:01;;;;;;;1.15;0.90;;;;;;;27.94;27.31;101942.56;6230772;28;20486;-77
2022/07/18 11:58:14;;;;;;;1.48;1.08;;;;;;;28.01;27.09;101940.03;6231474;28;20473;-78
2022/07/18 12:01:16;;;;;;;1.83;0.90;;;;;;;28.09;27.46;101931.09;6230703;28;20050;-78
2022/07/18 12:04:21;;;;;;;1.88;1.15;;;;;;;28.39;26.19;101938.59;6233805;28;20046;-77
2022/07/18 12:07:25;;;;;;;2.10;1.10;;;;;;;28.78;25.75;101932.44;6253826;28;20050;-77
2022/07/18 12:10:26;;;;;;;1.13;0.95;;;;;;;29.19;24.79;101925.03;6253604;28;20060;-77
2022/07/18 12:13:40;;;;;;;1.50;1.00;;;;;;;29.29;25.67;101919.41;6253803;28;20053;-78
2022/07/18 12:16:43;;;;;;;2.70;1.38;;;;;;;29.60;25.94;101907.78;6250318;28;20187;-77
2022/07/18 12:19:46;;;;;;;2.10;1.15;;;;;;;29.89;24.37;101913.34;6253053;28;20524;-77
2022/07/18 12:23:09;;;;;;;2.20;1.40;;;;;;;30.04;24.50;101916.97;6254329;28;20513;-78
2022/07/18 12:26:27;;;;;;;1.80;1.10;;;;;;;29.79;22.77;101900.00;6253528;28;20053;-78
2022/07/18 12:29:28;;;;;;;4.93;1.42;;;;;;;29.92;23.53;101895.88;6253378;28;20060;-78
2022/07/18 12:32:31;;;;;;;2.20;1.23;;;;;;;30.10;23.65;101890.97;6253037;28;20513;-78
2022/07/18 12:35:36;;;;;;;1.75;1.10;;;;;;;30.60;22.96;101889.50;6252516;28;20045;-78
2022/07/18 12:38:38;;;;;;;3.78;1.38;;;;;;;31.05;21.99;101884.94;6252623;28;20072;-77
2022/07/18 12:41:39;;;;;;;2.28;1.13;;;;;;;31.28;21.73;101879.41;6253422;28;20053;-77
2022/07/18 12:44:40;;;;;;;2.70;1.30;;;;;;;31.63;22.99;101891.31;6252304;28;20041;-78
2022/07/18 12:47:42;;;;;;;1.88;1.10;;;;;;;31.82;21.05;101876.22;6235729;28;20456;-78
2022/07/18 12:50:45;;;;;;;1.67;0.90;;;;;;;32.06;20.69;101884.00;6237110;28;20501;-78
2022/07/18 12:53:46;;;;;;;1.42;1.27;;;;;;;31.73;21.21;101880.13;6253424;28;20053;-78
2022/07/18 12:56:48;;;;;;;1.75;1.02;;;;;;;31.04;22.00;101875.13;6252998;28;20049;-78
2022/07/18 12:59:49;;;;;;;2.65;1.10;;;;;;;30.87;22.73;101870.94;6252978;28;20049;-78
2022/07/18 13:02:50;;;;;;;2.35;1.48;;;;;;;30.52;23.67;101874.19;6252385;28;20053;-78
2022/07/18 13:05:53;;;;;;;2.55;1.17;;;;;;;30.08;23.39;101872.19;6251883;28;20041;-77
2022/07/18 13:08:55;;;;;;;1.40;1.15;;;;;;;30.04;24.40;101880.88;6252293;28;20056;-79
2022/07/18 13:11:56;;;;;;;1.98;1.15;;;;;;;29.98;24.00;101878.91;6251786;28;20058;-78
2022/07/18 13:14:57;;;;;;;2.65;1.20;;;;;;;29.83;25.21;101867.97;6249146;28;20512;-77
2022/07/18 13:17:59;;;;;;;1.33;1.00;;;;;;;29.76;24.53;101872.47;6251199;28;20501;-78
2022/07/18 13:21:02;;;;;;;1.58;0.90;;;;;;;29.74;26.06;101867.19;6250691;28;20050;-78
2022/07/18 13:24:04;;;;;;;2.53;1.00;;;;;;;29.74;25.92;101860.94;6251979;28;20042;-78
2022/07/18 13:27:06;;;;;;;2.15;1.10;;;;;;;29.85;24.61;101863.25;6251892;28;20056;-77
2022/07/18 13:30:09;;;;;;;1.63;0.93;;;;;;;29.63;24.86;101859.50;6252107;28;20056;-78
2022/07/18 13:33:10;;;;;;;3.60;1.10;;;;;;;29.55;25.04;101849.56;6251348;28;20049;-78
2022/07/18 13:36:13;;;;;;;2.50;1.02;;;;;;;29.50;26.11;101843.81;6251835;28;20076;-78
2022/07/18 13:39:15;;;;;;;3.08;1.50;;;;;;;29.71;26.42;101845.91;6251692;28;20057;-78
2022/07/18 13:42:16;;;;;;;2.28;1.30;;;;;;;29.90;27.31;101833.72;6250646;28;20058;-77
2022/07/18 13:45:18;;;;;;;1.35;1.00;;;;;;;30.49;24.73;101838.44;6251354;28;20041;-77
2022/07/18 13:48:19;;;;;;;1.15;0.80;;;;;;;30.92;24.85;101825.03;6252486;28;20045;-77
2022/07/18 13:51:22;;;;;;;2.97;1.17;;;;;;;31.22;24.52;101812.25;6253093;28;20053;-78
2022/07/18 13:54:23;;;;;;;1.92;1.20;;;;;;;31.38;23.87;101822.88;6252723;28;20045;-77
2022/07/18 13:57:25;;;;;;;2.67;1.45;;;;;;;31.64;22.25;101818.75;6250999;28;20083;-78
2022/07/18 14:00:26;;;;;;;2.15;1.45;;;;;;;31.66;23.10;101809.38;6249074;28;20053;-78
2022/07/18 14:03:27;;;;;;;1.60;1.10;;;;;;;31.64;23.33;101811.44;6249711;28;20060;-79
2022/07/18 14:06:30;;;;;;;1.42;1.08;;;;;;;31.58;22.74;101817.66;6256819;28;20041;-78
2022/07/18 14:09:31;;;;;;;1.73;0.80;;;;;;;31.72;23.31;101814.03;6252258;28;20050;-78
2022/07/18 14:12:33;;;;;;;1.88;1.23;;;;;;;31.89;24.63;101811.09;6255607;28;20049;-78